createdAt,value
2019-04-19T00:00:54.441Z,99334.43
2019-04-19T00:03:24.318Z,99336.39
2019-04-19T00:06:13.666Z,99341.81
2019-04-19T00:08:55.419Z,99341.05
2019-04-19T00:11:18.907Z,99341.83
2019-04-19T00:13:37.245Z,99337.66
2019-04-19T00:16:06.749Z,99338.82
2019-04-19T00:18:37.849Z,99338.13
2019-04-19T00:21:24.040Z,99337.53
2019-04-19T00:23:40.817Z,99339.30
2019-04-19T00:26:06.150Z,99336.77
2019-04-19T00:28:42.538Z,99337.05
2019-04-19T00:31:21.551Z,99334.38
2019-04-19T00:33:41.698Z,99336.03
2019-04-19T00:36:07.132Z,99330.09
2019-04-19T00:38:46.768Z,99334.24
2019-04-19T00:41:25.626Z,99335.75
2019-04-19T00:43:56.275Z,99326.08
2019-04-19T00:46:35.403Z,99333.38
2019-04-19T00:49:02.817Z,99323.31
2019-04-19T00:51:29.350Z,99336.18
2019-04-19T00:54:04.222Z,99337.06
2019-04-19T00:56:31.267Z,99325.62
2019-04-19T00:58:56.560Z,99331.73
2019-04-19T01:01:24.168Z,99328.61
2019-04-19T01:03:51.091Z,99329.02
2019-04-19T01:06:21.884Z,99330.29
2019-04-19T01:08:59.234Z,99328.98
2019-04-19T01:11:31.445Z,99330.17
2019-04-19T01:14:01.358Z,99335.22
2019-04-19T01:16:29.695Z,99335.22
2019-04-19T01:18:58.066Z,99332.47
2019-04-19T01:21:19.877Z,99339.67
2019-04-19T01:23:54.043Z,99337.70
2019-04-19T01:26:18.683Z,99345.03
2019-04-19T01:28:53.598Z,99339.90
2019-04-19T01:31:22.471Z,99341.15
2019-04-19T01:33:49.147Z,99341.58
2019-04-19T01:36:25.198Z,99334.86
2019-04-19T01:38:58.069Z,99340.09
2019-04-19T01:41:33.736Z,99331.92
2019-04-19T01:44:07.004Z,99341.95
2019-04-19T01:46:40.867Z,99336.03
2019-04-19T01:49:11.924Z,99341.67
2019-04-19T01:52:08.365Z,99342.16
2019-04-19T01:54:38.398Z,99334.34
2019-04-19T01:56:57.376Z,99337.66
2019-04-19T01:59:24.809Z,99337.98
2019-04-19T02:02:00.549Z,99342.53
2019-04-19T02:04:26.173Z,99337.80
2019-04-19T02:06:52.984Z,99340.89
2019-04-19T02:09:33.915Z,99337.83
2019-04-19T02:12:16.935Z,99328.46
2019-04-19T02:14:38.525Z,99337.50
2019-04-19T02:17:04.442Z,99331.25
2019-04-19T02:19:31.361Z,99324.54
2019-04-19T02:22:02.080Z,99335.12
2019-04-19T02:24:35.179Z,99332.53
2019-04-19T02:27:03.416Z,99335.68
2019-04-19T02:29:31.649Z,99336.77
2019-04-19T02:42:32.982Z,99346.30
2019-04-19T02:49:57.933Z,99349.26
2019-04-19T02:52:33.203Z,99349.20
2019-04-19T03:00:13.448Z,99339.13
2019-04-19T03:05:11.160Z,99348.38
2019-04-19T03:07:11.386Z,99350.12
2019-04-19T03:09:43.227Z,99356.56
2019-04-19T03:12:33.249Z,99359.73
2019-04-19T03:14:52.343Z,99359.06
2019-04-19T03:17:30.785Z,99361.63
2019-04-19T03:19:54.193Z,99357.65
2019-04-19T03:22:48.698Z,99358.19
2019-04-19T03:25:03.274Z,99361.40
2019-04-19T03:27:20.338Z,99357.78
2019-04-19T03:29:45.523Z,99364.95
2019-04-19T03:35:06.480Z,99368.55
2019-04-19T03:37:32.643Z,99362.34
2019-04-19T03:40:06.283Z,99366.05
2019-04-19T03:42:37.617Z,99371.33
2019-04-19T03:45:08.753Z,99367.65
2019-04-19T03:47:38.089Z,99370.22
2019-04-19T03:50:04.451Z,99369.36
2019-04-19T03:52:35.760Z,99371.71
2019-04-19T03:55:04.952Z,99382.09
2019-04-19T03:57:30.297Z,99377.89
2019-04-19T03:59:45.871Z,99376.84
2019-04-19T04:02:19.978Z,99378.47
2019-04-19T04:04:52.655Z,99378.00
2019-04-19T04:07:20.818Z,99384.23
2019-04-19T04:09:49.727Z,99386.70
2019-04-19T04:12:32.203Z,99387.83
2019-04-19T04:15:17.909Z,99387.18
2019-04-19T04:17:37.405Z,99391.03
2019-04-19T04:20:07.459Z,99388.77
2019-04-19T04:22:39.047Z,99392.67
2019-04-19T04:25:13.358Z,99404.91
2019-04-19T04:27:49.486Z,99404.00
2019-04-19T04:30:18.549Z,99415.22
2019-04-19T04:32:52.822Z,99414.88
2019-04-19T04:35:24.325Z,99418.89
2019-04-19T04:37:51.448Z,99422.50
2019-04-19T04:40:08.452Z,99426.97
2019-04-19T04:42:45.259Z,99431.86
2019-04-19T04:45:28.756Z,99430.35
2019-04-19T04:48:07.772Z,99434.11
2019-04-19T04:51:00.540Z,99435.09
2019-04-19T04:53:15.659Z,99436.98
2019-04-19T04:55:58.189Z,99439.80
2019-04-19T04:58:31.964Z,99445.30
2019-04-19T05:01:02.412Z,99427.43
2019-04-19T05:03:43.302Z,99441.70
2019-04-19T05:06:16.805Z,99446.43
2019-04-19T05:08:47.618Z,99450.05
2019-04-19T05:11:16.770Z,99449.89
2019-04-19T05:13:43.357Z,99445.98
2019-04-19T05:16:25.171Z,99449.81
2019-04-19T05:18:47.158Z,99456.17
2019-04-19T05:21:17.857Z,99451.98
2019-04-19T05:23:47.767Z,99458.28
2019-04-19T05:26:29.281Z,99457.42
2019-04-19T05:28:47.699Z,99461.00
2019-04-19T05:31:04.969Z,99462.37
2019-04-19T05:33:46.246Z,99456.34
2019-04-19T05:36:17.875Z,99458.31
2019-04-19T05:38:57.633Z,99456.71
2019-04-19T05:41:34.339Z,99463.42
2019-04-19T05:44:19.816Z,99457.08
2019-04-19T05:46:47.031Z,99466.41
2019-04-19T05:49:08.018Z,99463.12
2019-04-19T05:51:43.655Z,99466.33
2019-04-19T05:53:55.092Z,99460.98
2019-04-19T05:56:22.207Z,99464.72
2019-04-19T05:59:01.182Z,99459.16
2019-04-19T06:01:43.132Z,99462.73
2019-04-19T06:04:13.020Z,99465.57
2019-04-19T06:06:44.581Z,99467.84
2019-04-19T06:08:51.971Z,99463.68
2019-04-19T06:11:26.410Z,99470.41
2019-04-19T06:14:12.637Z,99470.66
2019-04-19T06:16:35.052Z,99471.97
2019-04-19T06:19:09.767Z,99469.16
2019-04-19T06:21:36.733Z,99469.68
2019-04-19T06:24:20.485Z,99467.27
2019-04-19T06:29:10.632Z,99470.41
2019-04-19T06:31:48.883Z,99468.80
2019-04-19T06:34:10.302Z,99467.19
2019-04-19T06:36:23.017Z,99470.47
2019-04-19T06:38:52.612Z,99466.73
2019-04-19T06:41:23.818Z,99474.75
2019-04-19T06:44:03.969Z,99474.75
2019-04-19T06:46:36.424Z,99473.45
2019-04-19T06:48:59.668Z,99470.69
2019-04-19T06:51:28.830Z,99470.69
2019-04-19T06:53:57.397Z,99473.33
2019-04-19T06:56:28.657Z,99472.02
2019-04-19T06:59:06.168Z,99470.42
2019-04-19T07:01:33.641Z,99478.55
2019-04-19T07:03:53.659Z,99480.20
2019-04-19T07:06:36.450Z,99474.91
2019-04-19T07:09:31.301Z,99481.05
2019-04-19T07:11:47.439Z,99475.65
2019-04-19T07:14:01.716Z,99478.77
2019-04-19T07:16:46.794Z,99485.23
2019-04-19T07:19:13.390Z,99481.19
2019-04-19T07:21:42.232Z,99481.82
2019-04-19T07:24:16.173Z,99475.83
2019-04-19T07:26:45.506Z,99484.80
2019-04-19T07:28:53.632Z,99487.79
2019-04-19T07:31:21.918Z,99485.29
2019-04-19T07:34:03.560Z,99488.86
2019-04-19T07:36:40.156Z,99485.98
2019-04-19T07:39:09.625Z,99490.22
2019-04-19T07:41:38.338Z,99483.37
2019-04-19T07:44:07.327Z,99488.83
2019-04-19T07:46:46.667Z,99482.95
2019-04-19T07:48:56.068Z,99485.01
2019-04-19T07:51:30.911Z,99485.73
2019-04-19T07:53:56.748Z,99492.97
2019-04-19T07:59:18.048Z,99498.52
2019-04-19T08:02:04.368Z,99503.77
2019-04-19T08:06:53.483Z,99502.48
2019-04-19T08:09:34.800Z,99498.55
2019-04-19T08:29:13.264Z,99500.16
2019-04-19T08:31:27.586Z,99490.20
2019-04-19T08:33:56.431Z,99495.73
2019-04-19T08:36:32.273Z,99493.83
2019-04-19T08:39:13.868Z,99493.59
2019-04-19T08:41:39.331Z,99492.97
2019-04-19T08:44:10.557Z,99494.92
2019-04-19T08:46:32.655Z,99485.73
2019-04-19T08:49:23.827Z,99491.09
2019-04-19T08:51:52.244Z,99489.05
2019-04-19T08:54:41.193Z,99492.06
2019-04-19T08:56:57.481Z,99488.58
2019-04-19T08:59:44.024Z,99484.44
2019-04-19T09:02:11.192Z,99486.29
2019-04-19T09:04:42.603Z,99488.94
2019-04-19T09:07:34.015Z,99484.80
2019-04-19T09:09:49.512Z,99479.35
2019-04-19T09:12:12.230Z,99483.74
2019-04-19T09:14:39.577Z,99480.59
2019-04-19T09:17:33.174Z,99478.13
2019-04-19T09:20:03.243Z,99479.73
2019-04-19T09:22:14.575Z,99485.88
2019-04-19T09:24:39.797Z,99478.88
2019-04-19T09:27:10.138Z,99479.22
2019-04-19T09:29:45.702Z,99471.28
2019-04-19T09:32:05.876Z,99479.91
2019-04-19T09:34:28.022Z,99482.17
2019-04-19T09:37:08.934Z,99479.56
2019-04-19T09:39:36.101Z,99473.46
2019-04-19T09:42:02.199Z,99472.17
2019-04-19T09:44:34.760Z,99476.89
2019-04-19T09:46:57.111Z,99476.59
2019-04-19T09:49:46.245Z,99473.91
2019-04-19T09:52:23.816Z,99467.52
2019-04-19T09:54:51.509Z,99472.00
2019-04-19T09:57:11.190Z,99457.66
2019-04-19T09:59:31.187Z,99465.89
2019-04-19T10:02:00.646Z,99463.70
2019-04-19T10:04:27.202Z,99460.20
2019-04-19T10:06:56.910Z,99455.84
2019-04-19T10:09:26.059Z,99446.12
2019-04-19T10:11:58.718Z,99453.58
2019-04-19T10:14:25.766Z,99453.95
2019-04-19T10:16:55.715Z,99441.86
2019-04-19T10:19:24.576Z,99461.94
2019-04-19T10:21:56.276Z,99460.17
2019-04-19T10:24:26.495Z,99454.20
2019-04-19T10:27:05.554Z,99456.53
2019-04-19T10:29:38.216Z,99453.50
2019-04-19T10:32:22.626Z,99449.25
2019-04-19T10:34:52.398Z,99442.36
2019-04-19T10:37:21.860Z,99445.18
2019-04-19T10:39:51.805Z,99440.99
2019-04-19T10:42:20.870Z,99436.94
2019-04-19T10:44:50.281Z,99437.16
2019-04-19T10:47:18.836Z,99439.88
2019-04-19T10:49:53.679Z,99435.55
2019-04-19T10:52:21.729Z,99427.69
2019-04-19T10:54:51.625Z,99432.14
2019-04-19T10:57:21.420Z,99428.11
2019-04-19T10:59:52.370Z,99426.15
2019-04-19T11:02:24.964Z,99425.16
2019-04-19T11:04:53.132Z,99425.94
2019-04-19T11:07:23.505Z,99418.05
2019-04-19T11:09:55.297Z,99430.85
2019-04-19T11:12:24.495Z,99416.98
2019-04-19T11:14:53.042Z,99415.42
2019-04-19T11:17:21.410Z,99413.11
2019-04-19T11:20:04.692Z,99416.58
2019-04-19T11:22:21.485Z,99410.67
2019-04-19T11:24:50.128Z,99406.39
2019-04-19T11:27:19.258Z,99410.73
2019-04-19T11:29:48.565Z,99416.20
2019-04-19T11:32:19.886Z,99404.23
2019-04-19T11:34:51.250Z,99408.35
2019-04-19T11:37:20.224Z,99403.67
2019-04-19T11:39:49.023Z,99403.12
2019-04-19T11:42:17.614Z,99403.03
2019-04-19T11:44:46.211Z,99402.66
2019-04-19T11:47:15.325Z,99409.48
2019-04-19T11:49:45.503Z,99401.16
2019-04-19T11:52:16.678Z,99394.78
2019-04-19T11:54:46.755Z,99392.81
2019-04-19T11:57:20.613Z,99385.13
2019-04-19T11:59:54.090Z,99395.18
2019-04-19T12:02:29.048Z,99386.63
2019-04-19T12:04:59.796Z,99392.17
2019-04-19T12:07:28.669Z,99383.53
2019-04-19T12:09:56.980Z,99383.67
2019-04-19T12:12:25.442Z,99383.83
2019-04-19T12:14:53.793Z,99377.23
2019-04-19T12:17:23.047Z,99377.21
2019-04-19T12:19:57.146Z,99387.05
2019-04-19T12:22:21.757Z,99378.02
2019-04-19T12:24:53.285Z,99380.27
2019-04-19T12:27:21.283Z,99382.52
2019-04-19T12:29:52.403Z,99379.02
2019-04-19T12:32:21.445Z,99374.80
2019-04-19T12:34:50.840Z,99374.28
2019-04-19T12:37:19.558Z,99377.13
2019-04-19T12:39:48.609Z,99372.86
2019-04-19T12:42:31.729Z,99374.72
2019-04-19T12:45:00.311Z,99367.82
2019-04-19T12:47:29.029Z,99364.75
2019-04-19T12:50:02.722Z,99356.94
2019-04-19T12:52:28.174Z,99361.37
2019-04-19T12:54:57.009Z,99362.58
2019-04-19T12:57:27.873Z,99356.25
2019-04-19T12:59:56.500Z,99347.52
2019-04-19T13:02:42.422Z,99348.90
2019-04-19T13:05:26.684Z,99342.70
2019-04-19T13:07:55.163Z,99345.48
2019-04-19T13:10:24.664Z,99339.20
2019-04-19T13:12:54.020Z,99334.88
2019-04-19T13:15:22.371Z,99337.09
2019-04-19T13:17:51.859Z,99335.87
2019-04-19T13:20:26.406Z,99337.41
2019-04-19T13:22:50.746Z,99324.83
2019-04-19T13:25:19.949Z,99321.50
2019-04-19T13:27:54.193Z,99327.56
2019-04-19T13:30:29.500Z,99331.47
2019-04-19T13:32:52.171Z,99319.88
2019-04-19T13:35:21.299Z,99317.11
2019-04-19T13:37:57.053Z,99312.87
2019-04-19T13:40:28.306Z,99310.24
2019-04-19T13:42:58.642Z,99317.91
2019-04-19T13:45:31.332Z,99309.98
2019-04-19T13:47:58.605Z,99310.61
2019-04-19T13:50:33.131Z,99311.17
2019-04-19T13:52:57.102Z,99310.59
2019-04-19T13:55:26.569Z,99305.58
2019-04-19T13:57:55.678Z,99305.40
2019-04-19T14:00:44.743Z,99301.62
2019-04-19T14:03:13.767Z,99289.58
2019-04-19T14:05:42.321Z,99302.41
2019-04-19T14:08:11.259Z,99286.98
2019-04-19T14:10:41.227Z,99299.16
2019-04-19T14:13:10.555Z,99285.68
2019-04-19T14:15:40.779Z,99293.78
2019-04-19T14:18:10.837Z,99299.37
2019-04-19T14:20:43.974Z,99288.37
2019-04-19T14:23:09.892Z,99284.78
2019-04-19T14:25:39.142Z,99284.80
2019-04-19T14:28:07.864Z,99279.53
2019-04-19T14:30:37.393Z,99284.23
2019-04-19T14:33:06.333Z,99280.89
2019-04-19T14:35:34.739Z,99277.45
2019-04-19T14:38:03.350Z,99276.73
2019-04-19T14:40:33.330Z,99272.84
2019-04-19T14:43:02.561Z,99279.55
2019-04-19T14:45:32.411Z,99272.36
2019-04-19T14:48:01.019Z,99267.30
2019-04-19T14:50:44.895Z,99266.75
2019-04-19T14:53:01.563Z,99269.02
2019-04-19T14:55:31.990Z,99269.75
2019-04-19T14:58:01.068Z,99260.67
2019-04-19T15:00:30.703Z,99262.27
2019-04-19T15:03:01.322Z,99263.30
2019-04-19T15:05:34.233Z,99259.48
2019-04-19T15:08:02.531Z,99253.83
2019-04-19T15:10:31.512Z,99250.63
2019-04-19T15:13:00.953Z,99256.61
2019-04-19T15:15:29.722Z,99254.82
2019-04-19T15:17:58.078Z,99254.54
2019-04-19T15:20:27.003Z,99250.39
2019-04-19T15:22:56.014Z,99248.28
2019-04-19T15:25:27.763Z,99249.40
2019-04-19T15:27:57.047Z,99241.15
2019-04-19T15:30:28.930Z,99246.55
2019-04-19T15:32:58.360Z,99250.18
2019-04-19T15:35:27.798Z,99240.86
2019-04-19T15:37:56.384Z,99249.84
2019-04-19T15:40:25.823Z,99247.34
2019-04-19T15:42:54.847Z,99246.42
2019-04-19T15:45:25.211Z,99242.17
2019-04-19T15:47:54.919Z,99233.28
2019-04-19T15:50:24.387Z,99236.85
2019-04-19T15:52:53.756Z,99238.00
2019-04-19T15:55:24.017Z,99233.00
2019-04-19T15:57:52.555Z,99237.13
2019-04-19T16:00:27.972Z,99235.80
2019-04-19T16:03:02.181Z,99235.44
2019-04-19T16:05:36.009Z,99233.21
2019-04-19T16:08:11.843Z,99239.13
2019-04-19T16:10:48.645Z,99236.38
2019-04-19T16:13:18.028Z,99232.98
2019-04-19T16:15:47.778Z,99233.63
2019-04-19T16:18:16.195Z,99240.52
2019-04-19T16:20:47.230Z,99237.97
2019-04-19T16:23:14.527Z,99230.92
2019-04-19T16:25:44.239Z,99238.54
2019-04-19T16:28:13.023Z,99233.68
2019-04-19T16:30:42.105Z,99227.06
2019-04-19T16:33:11.498Z,99231.31
2019-04-19T16:35:40.409Z,99232.55
2019-04-19T16:38:09.873Z,99233.20
2019-04-19T16:40:38.533Z,99234.17
2019-04-19T16:43:07.743Z,99230.99
2019-04-19T16:45:37.623Z,99234.98
2019-04-19T16:48:07.800Z,99231.11
2019-04-19T16:50:36.631Z,99240.33
2019-04-19T16:53:06.473Z,99232.89
2019-04-19T16:55:35.954Z,99234.58
2019-04-19T16:58:06.202Z,99231.20
2019-04-19T17:00:42.767Z,99239.80
2019-04-19T17:03:11.790Z,99234.86
2019-04-19T17:05:40.249Z,99240.94
2019-04-19T17:08:09.363Z,99238.92
2019-04-19T17:10:38.705Z,99241.33
2019-04-19T17:13:07.020Z,99251.28
2019-04-19T17:15:52.973Z,99251.58
2019-04-19T17:18:22.965Z,99254.84
2019-04-19T17:20:55.585Z,99253.13
2019-04-19T17:23:24.439Z,99257.86
2019-04-19T17:25:53.064Z,99251.76
2019-04-19T17:28:21.583Z,99253.95
2019-04-19T17:30:50.527Z,99252.09
2019-04-19T17:33:20.038Z,99257.09
2019-04-19T17:35:48.506Z,99263.95
2019-04-19T17:39:47.051Z,99263.09
2019-04-19T17:40:46.952Z,99266.27
2019-04-19T17:43:15.294Z,99268.12
2019-04-19T17:45:44.338Z,99275.17
2019-04-19T17:48:12.559Z,99276.48
2019-04-19T17:50:41.889Z,99277.67
2019-04-19T17:53:10.740Z,99277.97
2019-04-19T17:55:44.424Z,99270.69
2019-04-19T17:58:09.713Z,99281.48
2019-04-19T18:00:38.229Z,99285.55
2019-04-19T18:03:07.053Z,99287.34
2019-04-19T18:05:36.500Z,99296.33
2019-04-19T18:08:06.410Z,99294.66
2019-04-19T18:10:43.303Z,99303.89
2019-04-19T18:13:05.375Z,99305.84
2019-04-19T18:15:34.970Z,99308.53
2019-04-19T18:18:06.805Z,99308.41
2019-04-19T18:20:34.938Z,99313.63
2019-04-19T18:23:08.676Z,99315.32
2019-04-19T18:25:37.035Z,99312.89
2019-04-19T18:28:07.107Z,99316.79
2019-04-19T18:30:42.334Z,99316.05
2019-04-19T18:33:06.285Z,99326.04
2019-04-19T18:35:35.851Z,99328.51
2019-04-19T18:38:08.647Z,99334.95
2019-04-19T18:40:35.378Z,99330.80
2019-04-19T18:43:16.254Z,99338.33
2019-04-19T18:45:37.630Z,99344.71
2019-04-19T18:48:04.003Z,99345.48
2019-04-19T18:50:37.176Z,99349.49
2019-04-19T18:53:12.026Z,99357.56
2019-04-19T18:55:39.472Z,99355.14
2019-04-19T18:58:02.591Z,99360.47
2019-04-19T19:00:35.638Z,99362.26
2019-04-19T19:03:03.678Z,99361.30
2019-04-19T19:05:35.785Z,99356.37
2019-04-19T19:08:07.641Z,99364.11
2019-04-19T19:10:39.838Z,99362.41
2019-04-19T19:13:02.390Z,99370.22
2019-04-19T19:15:40.874Z,99362.38
2019-04-19T19:18:02.938Z,99370.12
2019-04-19T19:20:41.687Z,99365.77
2019-04-19T19:23:21.334Z,99367.56
2019-04-19T19:25:49.224Z,99373.30
2019-04-19T19:28:10.583Z,99375.03
2019-04-19T19:30:40.594Z,99379.41
2019-04-19T19:33:15.281Z,99381.42
2019-04-19T19:35:46.684Z,99379.88
2019-04-19T19:38:15.534Z,99379.73
2019-04-19T19:40:55.396Z,99379.23
2019-04-19T19:43:29.333Z,99385.74
2019-04-19T19:45:53.989Z,99385.77
2019-04-19T19:48:28.589Z,99387.16
2019-04-19T19:51:08.460Z,99392.02
2019-04-19T19:53:44.522Z,99385.19
2019-04-19T19:56:11.194Z,99386.19
2019-04-19T19:58:22.211Z,99387.71
2019-04-19T20:01:00.544Z,99384.44
2019-04-19T20:03:21.832Z,99383.63
2019-04-19T20:05:44.181Z,99394.15
2019-04-19T20:08:19.713Z,99390.02
2019-04-19T20:10:45.832Z,99395.79
2019-04-19T20:13:16.157Z,99393.64
2019-04-19T20:15:44.585Z,99392.47
2019-04-19T20:18:13.169Z,99388.47
2019-04-19T20:20:44.286Z,99395.84
2019-04-19T20:23:22.602Z,99389.42
2019-04-19T20:25:47.514Z,99390.91
2019-04-19T20:28:16.317Z,99389.48
2019-04-19T20:30:46.378Z,99395.44
2019-04-19T20:33:13.403Z,99387.74
2019-04-19T20:35:45.004Z,99383.64
2019-04-19T20:38:16.793Z,99388.12
2019-04-19T20:40:51.079Z,99386.30
2019-04-19T20:43:30.583Z,99392.09
2019-04-19T20:45:46.208Z,99391.11
2019-04-19T20:48:17.867Z,99389.00
2019-04-19T20:50:51.766Z,99389.00
2019-04-19T20:53:32.449Z,99393.92
2019-04-19T20:56:31.414Z,99394.42
2019-04-19T20:58:33.241Z,99394.97
2019-04-19T21:00:54.907Z,99399.23
2019-04-19T21:03:28.342Z,99397.11
2019-04-19T21:05:54.923Z,99401.66
2019-04-19T21:08:26.251Z,99401.91
2019-04-19T21:10:58.913Z,99408.28
2019-04-19T21:13:25.198Z,99409.20
2019-04-19T21:15:54.402Z,99412.16
2019-04-19T21:18:25.808Z,99413.95
2019-04-19T21:20:55.734Z,99413.94
2019-04-19T21:23:27.224Z,99413.55
2019-04-19T21:25:57.414Z,99413.14
2019-04-19T21:28:32.526Z,99409.59
2019-04-19T21:30:56.262Z,99418.54
2019-04-19T21:33:24.732Z,99418.66
2019-04-19T21:36:00.220Z,99417.83
2019-04-19T21:38:25.052Z,99417.91
2019-04-19T21:40:53.480Z,99420.47
2019-04-19T21:43:28.411Z,99426.91
2019-04-19T21:45:54.853Z,99428.95
2019-04-19T21:48:26.848Z,99425.46
2019-04-19T21:50:53.730Z,99427.35
2019-04-19T21:53:29.412Z,99428.77
2019-04-19T21:56:03.232Z,99433.92
2019-04-19T21:58:25.703Z,99428.75
2019-04-19T22:01:03.629Z,99431.21
2019-04-19T22:03:30.423Z,99431.28
2019-04-19T22:06:04.068Z,99434.72
2019-04-19T22:08:34.739Z,99435.34
2019-04-19T22:11:00.403Z,99434.64
2019-04-19T22:13:33.319Z,99436.32
2019-04-19T22:16:01.695Z,99432.83
2019-04-19T22:18:32.341Z,99429.69
2019-04-19T22:21:02.869Z,99440.28
2019-04-19T22:23:29.236Z,99435.63
2019-04-19T22:26:08.693Z,99440.08
2019-04-19T22:28:27.944Z,99439.27
2019-04-19T22:30:56.553Z,99434.68
2019-04-19T22:33:25.098Z,99438.16
2019-04-19T22:35:57.972Z,99440.23
2019-04-19T22:38:24.164Z,99435.16
2019-04-19T22:40:54.738Z,99438.86
2019-04-19T22:43:24.606Z,99434.02
2019-04-19T22:46:00.150Z,99437.53
2019-04-19T22:48:23.709Z,99434.20
2019-04-19T22:50:58.246Z,99429.55
2019-04-19T22:53:30.370Z,99443.11
2019-04-19T22:56:06.739Z,99437.41
2019-04-19T22:58:28.169Z,99442.34
2019-04-19T23:00:54.441Z,99434.11
2019-04-19T23:03:30.137Z,99435.39
2019-04-19T23:05:54.898Z,99427.23
2019-04-19T23:08:30.140Z,99440.02
2019-04-19T23:10:59.080Z,99429.95
2019-04-19T23:13:25.778Z,99431.76
2019-04-19T23:15:59.985Z,99434.02
2019-04-19T23:18:26.723Z,99436.64
2019-04-19T23:20:57.655Z,99438.28
2019-04-19T23:23:29.785Z,99437.53
2019-04-19T23:26:08.932Z,99438.45
2019-04-19T23:28:31.635Z,99435.33
2019-04-19T23:31:00.621Z,99432.27
2019-04-19T23:33:26.563Z,99436.41
2019-04-19T23:35:55.526Z,99437.14
2019-04-19T23:38:27.701Z,99432.34
2019-04-19T23:40:55.172Z,99434.39
2019-04-19T23:43:29.584Z,99437.42
2019-04-19T23:45:54.151Z,99440.61
2019-04-19T23:48:26.434Z,99431.53
2019-04-19T23:50:52.672Z,99441.30
2019-04-19T23:53:23.221Z,99430.14
2019-04-19T23:55:50.999Z,99425.90
2019-04-19T23:58:28.164Z,99429.61
